createdAt,value
2018-01-25T00:00:02.772Z,87.83
2018-01-25T00:01:02.746Z,87.74
2018-01-25T00:02:02.479Z,87.83
2018-01-25T00:03:02.761Z,87.64
2018-01-25T00:04:02.680Z,87.83
2018-01-25T00:05:02.662Z,88.12
2018-01-25T00:06:02.641Z,88.02
2018-01-25T00:07:02.372Z,88.02
2018-01-25T00:08:02.605Z,88.21
2018-01-25T00:09:02.569Z,88.02
2018-01-25T00:10:02.550Z,88.02
2018-01-25T00:11:02.529Z,88.21
2018-01-25T00:12:02.509Z,87.93
2018-01-25T00:13:02.482Z,88.12
2018-01-25T00:14:02.457Z,88.5
2018-01-25T00:15:02.222Z,88.98
2018-01-25T00:16:02.414Z,88.69
2018-01-25T00:17:02.390Z,89.45
2018-01-25T00:18:02.373Z,89.26
2018-01-25T00:19:02.351Z,89.26
2018-01-25T00:20:02.080Z,89.54
2018-01-25T00:21:02.056Z,90.03
2018-01-25T00:22:02.280Z,90.12
2018-01-25T00:23:02.257Z,90.03
2018-01-25T00:24:02.241Z,89.74
2018-01-25T00:25:02.215Z,89.6
2018-01-25T00:26:01.945Z,90.22
2018-01-25T00:27:02.169Z,90.69
2018-01-25T00:28:02.147Z,90.41
2018-01-25T00:29:02.124Z,90.5
2018-01-25T00:30:02.104Z,90.31
2018-01-25T00:31:02.078Z,90.79
2018-01-25T00:32:02.054Z,91.22
2018-01-25T00:33:02.035Z,90.98
2018-01-25T00:34:02.013Z,90.64
2018-01-25T00:35:01.988Z,90.79
2018-01-25T00:36:01.967Z,91.31
2018-01-25T00:37:01.948Z,90.98
2018-01-25T00:38:01.676Z,91.69
2018-01-25T00:39:01.897Z,91.79
2018-01-25T00:40:01.878Z,92.27
2018-01-25T00:41:01.857Z,92.36
2018-01-25T00:42:01.836Z,92.74
2018-01-25T00:43:01.810Z,92.27
2018-01-25T00:44:01.788Z,92.93
2018-01-25T00:45:01.768Z,92.74
2018-01-25T00:46:01.742Z,93.32
2018-01-25T00:47:01.762Z,93.03
2018-01-25T00:48:01.697Z,93.32
2018-01-25T00:49:01.674Z,93.6
2018-01-25T00:50:01.656Z,94.27
2018-01-25T00:51:01.631Z,93.88
2018-01-25T00:52:01.361Z,94.37
2018-01-25T00:53:01.595Z,94.37
2018-01-25T00:54:01.566Z,94.46
2018-01-25T00:55:01.294Z,94.74
2018-01-25T00:56:01.275Z,94.84
2018-01-25T00:57:01.509Z,94.84
2018-01-25T00:58:01.475Z,95.03
2018-01-25T00:59:01.450Z,95.32
2018-01-25T01:00:01.432Z,95.89
2018-01-25T01:01:01.401Z,96.65
2018-01-25T01:02:01.133Z,96.75
2018-01-25T01:03:01.357Z,96.65
2018-01-25T01:04:01.091Z,96.46
2018-01-25T01:05:01.318Z,97.22
2018-01-25T01:06:01.292Z,97.13
2018-01-25T01:07:01.268Z,96.94
2018-01-25T01:08:01.252Z,97.61
2018-01-25T01:09:01.223Z,97.89
2018-01-25T01:10:01.321Z,97.94
2018-01-25T01:11:01.178Z,98.6
2018-01-25T01:12:01.153Z,99.18
2018-01-25T01:13:01.130Z,99.08
2018-01-25T01:14:01.108Z,98.51
2018-01-25T01:15:00.838Z,98.99
2018-01-25T01:16:01.059Z,99.99
2018-01-25T01:17:01.034Z,99.99
2018-01-25T01:18:01.010Z,99.99
2018-01-25T01:19:00.742Z,99.99
2018-01-25T01:20:00.967Z,99.99
2018-01-25T01:21:00.939Z,99.99
2018-01-25T01:22:00.916Z,99.99
2018-01-25T01:23:00.889Z,99.99
2018-01-25T01:24:00.620Z,99.99
2018-01-25T01:25:00.837Z,99.99
2018-01-25T01:26:00.569Z,99.99
2018-01-25T01:27:00.544Z,99.99
2018-01-25T01:28:00.765Z,99.99
2018-01-25T01:29:00.496Z,99.99
2018-01-25T01:30:00.722Z,99.99
2018-01-25T01:31:00.694Z,99.99
2018-01-25T01:32:00.665Z,99.99
2018-01-25T01:33:00.641Z,99.99
2018-01-25T01:34:00.621Z,99.99
2018-01-25T01:35:00.347Z,99.99
2018-01-25T01:36:00.323Z,99.99
2018-01-25T01:37:00.540Z,99.99
2018-01-25T01:38:00.520Z,99.99
2018-01-25T01:39:00.246Z,99.99
2018-01-25T01:40:00.222Z,99.99
2018-01-25T01:41:00.441Z,99.99
2018-01-25T01:42:00.416Z,99.99
2018-01-25T01:43:00.388Z,99.99
2018-01-25T01:44:00.367Z,99.99
2018-01-25T01:45:00.338Z,99.99
2018-01-25T01:46:00.412Z,99.99
2018-01-25T01:47:00.287Z,99.99
2018-01-25T01:48:00.261Z,99.99
2018-01-25T01:48:59.990Z,99.99
2018-01-25T01:50:00.211Z,99.99
2018-01-25T01:51:00.187Z,99.99
2018-01-25T01:52:00.165Z,99.99
2018-01-25T01:52:59.895Z,99.99
2018-01-25T01:53:59.866Z,99.99
2018-01-25T01:55:00.091Z,99.99
2018-01-25T01:56:00.064Z,99.99
2018-01-25T01:57:00.034Z,99.99
2018-01-25T01:58:00.015Z,99.99
2018-01-25T01:58:59.738Z,99.99
2018-01-25T01:59:59.717Z,99.99
2018-01-25T02:00:59.936Z,99.99
2018-01-25T02:01:59.909Z,99.99
2018-01-25T02:02:59.887Z,99.99
2018-01-25T02:03:59.857Z,99.99
2018-01-25T02:04:59.834Z,99.99
2018-01-25T02:05:59.813Z,99.99
2018-01-25T02:06:59.788Z,99.99
2018-01-25T02:07:59.762Z,99.99
2018-01-25T02:08:59.728Z,99.99
2018-01-25T02:09:59.702Z,99.99
2018-01-25T02:10:59.679Z,99.99
2018-01-25T02:11:59.407Z,99.99
2018-01-25T02:12:59.631Z,99.99
2018-01-25T02:13:59.603Z,99.99
2018-01-25T02:14:59.575Z,99.99
2018-01-25T02:15:59.558Z,99.99
2018-01-25T02:16:59.526Z,99.99
2018-01-25T02:17:59.500Z,99.99
2018-01-25T02:18:59.512Z,99.99
2018-01-25T02:19:59.202Z,99.99
2018-01-25T02:20:59.423Z,99.99
2018-01-25T02:21:59.396Z,99.99
2018-01-25T02:22:59.371Z,99.99
2018-01-25T02:23:59.347Z,99.99
2018-01-25T02:24:59.320Z,99.99
2018-01-25T02:25:59.293Z,99.99
2018-01-25T02:26:59.269Z,99.99
2018-01-25T02:27:59.249Z,99.99
2018-01-25T02:28:59.216Z,99.99
2018-01-25T02:29:58.942Z,99.99
2018-01-25T02:30:59.175Z,99.99
2018-01-25T02:31:59.139Z,99.99
2018-01-25T02:32:59.115Z,99.99
2018-01-25T02:33:59.088Z,99.99
2018-01-25T02:34:59.062Z,99.99
2018-01-25T02:35:58.789Z,99.99
2018-01-25T02:36:59.016Z,99.99
2018-01-25T02:37:58.738Z,99.99
2018-01-25T02:38:58.962Z,99.99
2018-01-25T02:39:58.935Z,99.99
2018-01-25T02:40:58.904Z,99.99
2018-01-25T02:41:58.877Z,99.99
2018-01-25T02:42:58.856Z,99.99
2018-01-25T02:43:58.831Z,99.99
2018-01-25T02:44:58.805Z,99.99
2018-01-25T02:45:58.776Z,99.99
2018-01-25T02:46:58.756Z,99.99
2018-01-25T02:47:58.725Z,99.99
2018-01-25T02:48:58.699Z,99.99
2018-01-25T02:49:58.677Z,99.99
2018-01-25T02:50:58.646Z,99.99
2018-01-25T02:51:58.624Z,99.99
2018-01-25T02:52:58.597Z,99.99
2018-01-25T02:53:58.574Z,99.99
2018-01-25T02:54:58.545Z,99.99
2018-01-25T02:55:58.521Z,99.99
2018-01-25T02:56:58.492Z,99.99
2018-01-25T02:57:58.464Z,99.99
2018-01-25T02:58:58.443Z,99.99
2018-01-25T02:59:58.420Z,99.99
2018-01-25T03:00:58.146Z,99.99
2018-01-25T03:01:58.364Z,99.99
2018-01-25T03:02:58.338Z,99.99
2018-01-25T03:03:58.309Z,99.99
2018-01-25T03:04:58.286Z,99.99
2018-01-25T03:05:58.258Z,99.99
2018-01-25T03:06:58.285Z,99.99
2018-01-25T03:07:58.212Z,99.99
2018-01-25T03:08:58.179Z,99.99
2018-01-25T03:09:58.154Z,99.99
2018-01-25T03:10:58.131Z,99.99
2018-01-25T03:11:58.103Z,99.99
2018-01-25T03:12:57.832Z,99.99
2018-01-25T03:13:58.049Z,99.99
2018-01-25T03:14:58.026Z,99.99
2018-01-25T03:15:57.753Z,99.99
2018-01-25T03:16:57.971Z,99.99
2018-01-25T03:17:57.699Z,99.99
2018-01-25T03:18:57.673Z,99.99
2018-01-25T03:19:57.648Z,99.99
2018-01-25T03:20:57.869Z,99.99
2018-01-25T03:21:57.840Z,99.99
2018-01-25T03:22:57.819Z,99.99
2018-01-25T03:23:57.846Z,99.99
2018-01-25T03:24:57.517Z,99.99
2018-01-25T03:25:57.738Z,99.99
2018-01-25T03:26:57.467Z,99.99
2018-01-25T03:27:57.441Z,99.99
2018-01-25T03:28:57.665Z,99.99
2018-01-25T03:29:57.634Z,99.99
2018-01-25T03:30:57.613Z,99.99
2018-01-25T03:31:57.580Z,99.99
2018-01-25T03:32:57.310Z,99.99
2018-01-25T03:33:57.526Z,99.99
2018-01-25T03:34:57.255Z,99.99
2018-01-25T03:35:57.476Z,99.99
2018-01-25T03:36:57.451Z,99.99
2018-01-25T03:37:57.420Z,99.99
2018-01-25T03:38:57.397Z,99.99
2018-01-25T03:39:57.370Z,99.99
2018-01-25T03:40:57.342Z,99.99
2018-01-25T03:41:57.320Z,99.99
2018-01-25T03:42:57.339Z,99.99
2018-01-25T03:43:57.269Z,99.99
2018-01-25T03:44:57.239Z,99.99
2018-01-25T03:45:57.215Z,99.99
2018-01-25T03:46:57.183Z,99.99
2018-01-25T03:47:57.160Z,99.99
2018-01-25T03:48:57.138Z,99.99
2018-01-25T03:49:57.105Z,99.99
2018-01-25T03:50:57.083Z,99.99
2018-01-25T03:51:57.054Z,99.99
2018-01-25T03:52:57.037Z,99.99
2018-01-25T03:53:57.008Z,99.99
2018-01-25T03:54:56.729Z,99.99
2018-01-25T03:55:56.950Z,99.99
2018-01-25T03:56:56.684Z,99.99
2018-01-25T03:57:56.897Z,99.99
2018-01-25T03:58:56.871Z,99.99
2018-01-25T03:59:56.842Z,99.99
2018-01-25T04:00:56.818Z,99.99
2018-01-25T04:01:56.795Z,99.99
2018-01-25T04:02:56.764Z,99.99
2018-01-25T04:03:56.745Z,99.99
2018-01-25T04:04:56.711Z,99.99
2018-01-25T04:05:56.689Z,99.99
2018-01-25T04:06:56.415Z,99.99
2018-01-25T04:07:56.636Z,99.99
2018-01-25T04:08:56.366Z,99.99
2018-01-25T04:09:56.581Z,99.99
2018-01-25T04:10:56.554Z,99.99
2018-01-25T04:11:56.529Z,99.99
2018-01-25T04:12:56.503Z,99.99
2018-01-25T04:13:56.481Z,99.99
2018-01-25T04:14:56.451Z,99.99
2018-01-25T04:15:56.182Z,99.99
2018-01-25T04:16:56.403Z,99.99
2018-01-25T04:17:56.369Z,99.99
2018-01-25T04:18:56.350Z,99.99
2018-01-25T04:19:56.072Z,99.99
2018-01-25T04:20:56.297Z,99.99
2018-01-25T04:21:56.269Z,99.99
2018-01-25T04:22:56.242Z,99.99
2018-01-25T04:23:56.217Z,99.99
2018-01-25T04:24:56.185Z,99.99
2018-01-25T04:25:56.163Z,99.99
2018-01-25T04:26:56.133Z,99.99
2018-01-25T04:27:56.108Z,99.99
2018-01-25T04:28:56.083Z,99.99
2018-01-25T04:29:56.056Z,99.99
2018-01-25T04:30:55.783Z,99.99
2018-01-25T04:31:56.007Z,99.99
2018-01-25T04:32:56.027Z,99.99
2018-01-25T04:33:55.950Z,99.99
2018-01-25T04:34:55.926Z,99.99
2018-01-25T04:35:55.899Z,99.99
2018-01-25T04:36:55.876Z,99.99
2018-01-25T04:37:55.847Z,99.99
2018-01-25T04:38:55.824Z,99.99
2018-01-25T04:39:55.794Z,99.99
2018-01-25T04:40:55.766Z,99.99
2018-01-25T04:41:55.745Z,99.99
2018-01-25T04:42:55.715Z,99.99
2018-01-25T04:43:55.788Z,99.99
2018-01-25T04:44:55.665Z,99.99
2018-01-25T04:45:55.634Z,99.99
2018-01-25T04:46:55.609Z,99.99
2018-01-25T04:47:55.582Z,99.99
2018-01-25T04:48:55.558Z,99.99
2018-01-25T04:49:55.282Z,99.99
2018-01-25T04:50:55.258Z,99.99
2018-01-25T04:51:55.481Z,99.99
2018-01-25T04:52:55.204Z,99.99
2018-01-25T04:53:55.433Z,99.99
2018-01-25T04:54:55.400Z,99.99
2018-01-25T04:55:55.373Z,99.99
2018-01-25T04:56:55.343Z,99.99
2018-01-25T04:57:55.325Z,99.99
2018-01-25T04:58:55.293Z,99.99
2018-01-25T04:59:55.261Z,99.99
2018-01-25T05:00:55.236Z,99.99
2018-01-25T05:01:55.213Z,99.99
2018-01-25T05:02:55.187Z,99.99
2018-01-25T05:03:55.161Z,99.99
2018-01-25T05:04:55.132Z,99.99
2018-01-25T05:05:54.864Z,99.99
2018-01-25T05:06:55.079Z,99.99
2018-01-25T05:07:55.055Z,99.99
2018-01-25T05:08:55.026Z,99.99
2018-01-25T05:09:55.000Z,99.99
2018-01-25T05:10:54.975Z,99.99
2018-01-25T05:11:54.948Z,99.99
2018-01-25T05:12:54.673Z,99.99
2018-01-25T05:13:54.892Z,99.99
2018-01-25T05:14:54.868Z,99.99
2018-01-25T05:15:54.841Z,99.99
2018-01-25T05:16:54.815Z,99.99
2018-01-25T05:17:54.790Z,99.99
2018-01-25T05:18:54.763Z,99.99
2018-01-25T05:19:54.736Z,99.99
2018-01-25T05:20:54.463Z,99.99
2018-01-25T05:21:54.682Z,99.99
2018-01-25T05:22:54.655Z,99.99
2018-01-25T05:23:54.627Z,99.99
2018-01-25T05:24:54.356Z,99.99
2018-01-25T05:25:54.575Z,99.99
2018-01-25T05:26:54.303Z,99.99
2018-01-25T05:27:54.278Z,99.99
2018-01-25T05:28:54.253Z,99.99
2018-01-25T05:29:54.471Z,99.99
2018-01-25T05:30:54.200Z,99.99
2018-01-25T05:31:54.419Z,99.99
2018-01-25T05:32:54.397Z,99.99
2018-01-25T05:33:54.366Z,99.99
2018-01-25T05:34:54.337Z,99.99
2018-01-25T05:35:54.315Z,99.99
2018-01-25T05:36:54.285Z,99.99
2018-01-25T05:37:54.015Z,99.99
2018-01-25T05:38:54.233Z,99.99
2018-01-25T05:39:54.209Z,99.99
2018-01-25T05:40:54.179Z,99.99
2018-01-25T05:41:54.154Z,99.99
2018-01-25T05:42:54.128Z,99.99
2018-01-25T05:43:54.098Z,99.99
2018-01-25T05:44:54.072Z,99.99
2018-01-25T05:45:53.802Z,99.99
2018-01-25T05:46:54.023Z,99.99
2018-01-25T05:47:54.042Z,99.99
2018-01-25T05:48:53.970Z,99.99
2018-01-25T05:49:53.695Z,99.99
2018-01-25T05:50:53.914Z,99.99
2018-01-25T05:51:53.891Z,99.99
2018-01-25T05:52:53.860Z,99.99
2018-01-25T05:53:53.838Z,99.99
2018-01-25T05:54:53.808Z,99.99
2018-01-25T05:55:53.785Z,99.99
2018-01-25T05:56:53.511Z,99.99
2018-01-25T05:57:53.734Z,99.99
2018-01-25T05:58:53.702Z,99.99
2018-01-25T05:59:53.683Z,99.99
2018-01-25T06:00:53.651Z,99.99
2018-01-25T06:01:53.381Z,99.99
2018-01-25T06:02:53.351Z,99.99
2018-01-25T06:03:53.569Z,99.99
2018-01-25T06:04:53.546Z,99.99
2018-01-25T06:05:53.522Z,99.99
2018-01-25T06:06:53.498Z,99.99
2018-01-25T06:07:53.219Z,99.99
2018-01-25T06:08:53.442Z,99.99
2018-01-25T06:09:53.421Z,99.99
2018-01-25T06:10:53.387Z,99.99
2018-01-25T06:11:53.364Z,99.99
2018-01-25T06:12:53.336Z,99.99
2018-01-25T06:13:53.311Z,99.99
2018-01-25T06:14:53.284Z,99.99
2018-01-25T06:15:53.257Z,99.99
2018-01-25T06:16:52.985Z,99.99
2018-01-25T06:17:53.202Z,99.99
2018-01-25T06:18:53.175Z,99.99
2018-01-25T06:19:52.904Z,99.99
2018-01-25T06:20:53.130Z,99.99
2018-01-25T06:21:53.099Z,99.99
2018-01-25T06:22:53.074Z,99.99
2018-01-25T06:23:52.801Z,99.99
2018-01-25T06:24:53.018Z,99.99
2018-01-25T06:25:52.993Z,99.99
2018-01-25T06:26:52.966Z,99.99
2018-01-25T06:27:52.941Z,99.99
2018-01-25T06:28:52.915Z,99.99
2018-01-25T06:29:52.644Z,99.99
2018-01-25T06:30:52.858Z,99.99
2018-01-25T06:31:52.588Z,99.99
2018-01-25T06:32:52.809Z,99.99
2018-01-25T06:33:52.779Z,99.99
2018-01-25T06:34:52.758Z,99.99
2018-01-25T06:35:52.727Z,99.99
2018-01-25T06:36:52.701Z,99.99
2018-01-25T06:37:52.678Z,99.99
2018-01-25T06:38:52.659Z,99.99
2018-01-25T06:39:52.625Z,99.99
2018-01-25T06:40:52.597Z,99.99
2018-01-25T06:41:52.323Z,99.99
2018-01-25T06:42:52.599Z,99.99
2018-01-25T06:43:52.515Z,99.99
2018-01-25T06:44:52.497Z,99.99
2018-01-25T06:45:52.220Z,99.99
2018-01-25T06:46:52.440Z,99.99
2018-01-25T06:47:52.412Z,99.99
2018-01-25T06:48:52.388Z,99.99
2018-01-25T06:49:52.363Z,99.99
2018-01-25T06:50:52.433Z,99.99
2018-01-25T06:51:52.310Z,99.99
2018-01-25T06:52:52.511Z,99.99
2018-01-25T06:53:52.476Z,99.99
2018-01-25T06:54:52.231Z,99.99
2018-01-25T06:55:52.299Z,99.99
2018-01-25T06:56:52.175Z,99.99
2018-01-25T06:57:52.147Z,99.99
2018-01-25T06:58:52.129Z,99.99
2018-01-25T06:59:52.105Z,99.99
2018-01-25T07:00:52.209Z,99.99
2018-01-25T07:01:52.043Z,99.99
2018-01-25T07:02:52.014Z,99.99
2018-01-25T07:03:52.501Z,99.99
2018-01-25T07:04:52.221Z,99.99
2018-01-25T07:05:51.992Z,99.99
2018-01-25T07:06:51.664Z,99.99
2018-01-25T07:07:51.885Z,99.99
2018-01-25T07:08:51.856Z,99.99
2018-01-25T07:09:51.832Z,99.99
2018-01-25T07:10:52.216Z,99.99
2018-01-25T07:11:51.986Z,99.99
2018-01-25T07:12:51.757Z,99.99
2018-01-25T07:13:51.480Z,99.99
2018-01-25T07:14:51.454Z,99.99
2018-01-25T07:15:51.675Z,99.99
2018-01-25T07:16:51.645Z,99.99
2018-01-25T07:17:51.376Z,99.99
2018-01-25T07:18:51.596Z,99.99
2018-01-25T07:19:51.569Z,99.99
2018-01-25T07:20:51.540Z,99.99
2018-01-25T07:21:51.514Z,99.99
2018-01-25T07:22:51.487Z,99.99
2018-01-25T07:23:51.462Z,99.99
2018-01-25T07:24:51.438Z,99.99
2018-01-25T07:25:51.407Z,99.99
2018-01-25T07:26:51.383Z,99.99
2018-01-25T07:27:51.401Z,99.99
2018-01-25T07:28:51.335Z,99.99
2018-01-25T07:29:51.306Z,99.99
2018-01-25T07:30:51.338Z,99.99
2018-01-25T07:31:51.006Z,99.99
2018-01-25T07:32:51.256Z,99.99
2018-01-25T07:33:52.038Z,99.99
2018-01-25T07:34:51.480Z,99.99
2018-01-25T07:35:51.147Z,99.99
2018-01-25T07:36:51.119Z,99.99
2018-01-25T07:37:51.094Z,99.99
2018-01-25T07:38:51.069Z,99.99
2018-01-25T07:39:51.046Z,99.99
2018-01-25T07:40:51.017Z,99.99
2018-01-25T07:41:50.990Z,99.99
2018-01-25T07:42:50.988Z,99.99
2018-01-25T07:43:51.032Z,99.99
2018-01-25T07:44:50.664Z,99.99
2018-01-25T07:45:51.059Z,99.99
2018-01-25T07:46:50.858Z,99.99
2018-01-25T07:47:50.836Z,99.99
2018-01-25T07:48:50.874Z,99.99
2018-01-25T07:49:50.535Z,99.99
2018-01-25T07:50:50.756Z,99.99
2018-01-25T07:51:50.483Z,99.99
2018-01-25T07:52:50.701Z,99.99
2018-01-25T07:53:50.675Z,99.99
2018-01-25T07:54:50.405Z,99.99
2018-01-25T07:55:50.659Z,99.99
2018-01-25T07:56:50.596Z,99.99
2018-01-25T07:57:50.570Z,99.99
2018-01-25T07:58:50.549Z,99.99
2018-01-25T07:59:50.520Z,99.99
2018-01-25T08:00:50.500Z,99.99
2018-01-25T08:01:50.471Z,99.99
2018-01-25T08:02:50.449Z,99.99
2018-01-25T08:03:50.421Z,99.99
2018-01-25T08:04:50.395Z,99.99
2018-01-25T08:05:50.366Z,99.99
2018-01-25T08:06:50.340Z,99.99
2018-01-25T08:07:50.312Z,99.99
2018-01-25T08:08:50.286Z,99.99
2018-01-25T08:09:50.264Z,99.99
2018-01-25T08:10:50.237Z,99.99
2018-01-25T08:11:50.213Z,99.99
2018-01-25T08:12:49.939Z,99.99
2018-01-25T08:13:50.159Z,99.99
2018-01-25T08:14:50.135Z,99.99
2018-01-25T08:15:50.108Z,99.99
2018-01-25T08:16:50.080Z,99.99
2018-01-25T08:17:49.909Z,99.99
2018-01-25T08:18:50.031Z,99.99
2018-01-25T08:19:50.063Z,99.99
2018-01-25T08:20:50.002Z,99.99
2018-01-25T08:21:49.952Z,99.99
2018-01-25T08:22:49.926Z,99.99
2018-01-25T08:23:49.904Z,99.99
2018-01-25T08:24:49.632Z,99.99
2018-01-25T08:25:49.853Z,99.99
2018-01-25T08:26:49.830Z,99.99
2018-01-25T08:27:49.655Z,99.99
2018-01-25T08:28:49.777Z,99.99
2018-01-25T08:29:49.750Z,99.99
2018-01-25T08:30:49.477Z,99.99
2018-01-25T08:31:49.700Z,99.99
2018-01-25T08:32:49.673Z,99.99
2018-01-25T08:33:49.656Z,99.99
2018-01-25T08:34:49.621Z,99.99
2018-01-25T08:35:49.595Z,99.99
2018-01-25T08:36:49.615Z,99.99
2018-01-25T08:37:49.549Z,99.99
2018-01-25T08:38:49.521Z,99.99
2018-01-25T08:39:49.504Z,99.99
2018-01-25T08:40:49.223Z,99.99
2018-01-25T08:41:49.459Z,99.99
2018-01-25T08:42:49.176Z,99.99
2018-01-25T08:43:49.403Z,99.99
2018-01-25T08:44:49.372Z,99.99
2018-01-25T08:45:49.345Z,99.99
2018-01-25T08:46:49.319Z,99.99
2018-01-25T08:47:49.295Z,99.99
2018-01-25T08:48:49.274Z,99.99
2018-01-25T08:49:49.249Z,99.99
2018-01-25T08:50:49.217Z,99.99
2018-01-25T08:51:49.196Z,99.99
2018-01-25T08:52:49.174Z,99.99
2018-01-25T08:53:49.144Z,99.99
2018-01-25T08:54:49.118Z,99.99
2018-01-25T08:55:49.089Z,99.99
2018-01-25T08:56:48.820Z,99.99
2018-01-25T08:57:48.799Z,99.99
2018-01-25T08:58:48.772Z,99.99
2018-01-25T08:59:48.751Z,99.99
2018-01-25T09:00:48.968Z,99.99
2018-01-25T09:01:48.949Z,99.99
2018-01-25T09:02:48.724Z,99.99
2018-01-25T09:03:48.760Z,99.99
2018-01-25T09:04:49.031Z,99.99
2018-01-25T09:05:48.847Z,99.99
2018-01-25T09:06:48.815Z,99.99
2018-01-25T09:07:48.794Z,99.99
2018-01-25T09:08:48.935Z,99.99
2018-01-25T09:09:48.742Z,99.99
2018-01-25T09:10:48.719Z,99.99
2018-01-25T09:11:48.446Z,99.99
2018-01-25T09:12:48.669Z,99.99
2018-01-25T09:13:48.641Z,99.99
2018-01-25T09:14:48.622Z,99.99
2018-01-25T09:15:48.346Z,99.99
2018-01-25T09:16:48.567Z,99.99
2018-01-25T09:17:48.544Z,99.99
2018-01-25T09:18:49.100Z,99.99
2018-01-25T09:19:48.495Z,99.99
2018-01-25T09:20:48.477Z,99.99
2018-01-25T09:21:48.443Z,99.99
2018-01-25T09:22:48.464Z,99.99
2018-01-25T09:23:48.409Z,99.99
2018-01-25T09:24:48.373Z,99.99
2018-01-25T09:25:48.347Z,99.99
2018-01-25T09:26:48.323Z,99.99
2018-01-25T09:27:48.299Z,99.99
2018-01-25T09:28:48.026Z,99.99
2018-01-25T09:29:48.247Z,99.99
2018-01-25T09:30:48.267Z,99.99
2018-01-25T09:31:48.199Z,99.99
2018-01-25T09:32:48.171Z,99.99
2018-01-25T09:33:48.149Z,99.99
2018-01-25T09:34:47.879Z,99.99
2018-01-25T09:35:47.853Z,99.99
2018-01-25T09:36:47.829Z,99.99
2018-01-25T09:37:47.805Z,99.99
2018-01-25T09:38:48.030Z,99.99
2018-01-25T09:39:48.004Z,99.99
2018-01-25T09:40:47.730Z,99.99
2018-01-25T09:41:47.953Z,99.99
2018-01-25T09:42:47.929Z,99.99
2018-01-25T09:43:47.903Z,99.99
2018-01-25T09:44:47.635Z,99.99
2018-01-25T09:45:47.854Z,99.99
2018-01-25T09:46:47.833Z,99.99
2018-01-25T09:47:47.808Z,99.99
2018-01-25T09:48:47.573Z,99.99
2018-01-25T09:49:47.763Z,99.99
2018-01-25T09:50:47.733Z,99.99
2018-01-25T09:51:47.714Z,99.99
2018-01-25T09:52:47.688Z,99.99
2018-01-25T09:53:47.659Z,99.99
2018-01-25T09:54:47.638Z,99.99
2018-01-25T09:55:47.367Z,99.99
2018-01-25T09:56:47.616Z,99.99
2018-01-25T09:57:47.321Z,99.99
2018-01-25T09:58:47.540Z,99.99
2018-01-25T09:59:47.543Z,99.99
2018-01-25T10:00:47.492Z,99.99
2018-01-25T10:01:47.470Z,99.99
2018-01-25T10:02:47.434Z,99.99
2018-01-25T10:03:47.420Z,99.99
2018-01-25T10:04:47.393Z,99.99
2018-01-25T10:05:47.372Z,99.99
2018-01-25T10:06:47.355Z,99.99
2018-01-25T10:07:47.324Z,99.99
2018-01-25T10:08:47.300Z,99.99
2018-01-25T10:09:47.275Z,99.99
2018-01-25T10:10:47.248Z,99.99
2018-01-25T10:11:47.226Z,99.99
2018-01-25T10:12:47.200Z,99.99
2018-01-25T10:13:47.187Z,99.99
2018-01-25T10:14:47.158Z,99.99
2018-01-25T10:15:47.133Z,99.99
2018-01-25T10:16:47.109Z,99.99
2018-01-25T10:17:47.558Z,99.99
2018-01-25T10:18:47.086Z,99.99
2018-01-25T10:19:47.036Z,99.99
2018-01-25T10:20:47.012Z,99.99
2018-01-25T10:21:46.990Z,99.99
2018-01-25T10:22:46.964Z,99.99
2018-01-25T10:23:46.944Z,99.99
2018-01-25T10:24:46.926Z,99.99
2018-01-25T10:25:46.897Z,99.99
2018-01-25T10:26:46.985Z,99.99
2018-01-25T10:27:46.847Z,99.99
2018-01-25T10:28:46.823Z,99.99
2018-01-25T10:29:46.804Z,99.99
2018-01-25T10:30:46.779Z,99.99
2018-01-25T10:31:46.752Z,99.99
2018-01-25T10:32:46.797Z,99.99
2018-01-25T10:33:46.708Z,99.99
2018-01-25T10:34:46.685Z,99.99
2018-01-25T10:35:46.660Z,99.99
2018-01-25T10:36:46.638Z,99.99
2018-01-25T10:37:46.615Z,99.99
2018-01-25T10:38:46.589Z,99.99
2018-01-25T10:39:46.593Z,99.99
2018-01-25T10:40:46.550Z,99.99
2018-01-25T10:41:46.521Z,99.99
2018-01-25T10:42:46.500Z,99.99
2018-01-25T10:43:46.228Z,99.99
2018-01-25T10:44:46.454Z,99.99
2018-01-25T10:45:46.427Z,99.99
2018-01-25T10:46:46.406Z,99.99
2018-01-25T10:47:46.385Z,99.99
2018-01-25T10:48:46.359Z,99.99
2018-01-25T10:49:46.348Z,99.99
2018-01-25T10:50:46.311Z,99.99
2018-01-25T10:51:46.292Z,99.99
2018-01-25T10:52:46.330Z,99.99
2018-01-25T10:53:45.997Z,99.99
2018-01-25T10:54:47.191Z,99.99
2018-01-25T10:55:46.199Z,99.99
2018-01-25T10:56:46.176Z,99.99
2018-01-25T10:57:45.906Z,99.99
2018-01-25T10:58:45.888Z,99.99
2018-01-25T10:59:46.166Z,99.99
2018-01-25T11:00:45.840Z,99.99
2018-01-25T11:01:45.821Z,99.99
2018-01-25T11:02:46.040Z,99.99
2018-01-25T11:03:46.019Z,99.99
2018-01-25T11:04:45.995Z,99.99
2018-01-25T11:05:46.028Z,99.99
2018-01-25T11:06:45.703Z,99.99
2018-01-25T11:07:45.927Z,99.99
2018-01-25T11:08:45.904Z,99.99
2018-01-25T11:09:45.883Z,99.99
2018-01-25T11:10:45.860Z,99.99
2018-01-25T11:11:45.837Z,99.99
2018-01-25T11:12:45.821Z,99.99
2018-01-25T11:13:45.790Z,99.99
2018-01-25T11:14:45.767Z,99.99
2018-01-25T11:15:45.745Z,99.99
2018-01-25T11:16:45.723Z,99.99
2018-01-25T11:17:45.456Z,99.99
2018-01-25T11:18:45.682Z,99.99
2018-01-25T11:19:46.048Z,99.99
2018-01-25T11:20:45.635Z,99.99
2018-01-25T11:21:45.614Z,99.99
2018-01-25T11:22:45.592Z,99.99
2018-01-25T11:23:45.571Z,99.99
2018-01-25T11:24:45.552Z,99.99
2018-01-25T11:25:45.279Z,99.99
2018-01-25T11:26:45.509Z,99.99
2018-01-25T11:27:45.479Z,99.99
2018-01-25T11:28:45.465Z,99.99
2018-01-25T11:29:45.446Z,99.99
2018-01-25T11:30:45.417Z,99.99
2018-01-25T11:31:45.392Z,99.99
2018-01-25T11:32:45.374Z,99.99
2018-01-25T11:33:45.353Z,99.99
2018-01-25T11:34:45.081Z,99.99
2018-01-25T11:35:45.309Z,99.99
2018-01-25T11:36:45.286Z,99.99
2018-01-25T11:37:45.264Z,99.99
2018-01-25T11:38:45.241Z,99.99
2018-01-25T11:39:45.215Z,99.99
2018-01-25T11:40:45.197Z,99.99
2018-01-25T11:41:45.182Z,99.99
2018-01-25T11:42:45.154Z,99.99
2018-01-25T11:43:45.131Z,99.99
2018-01-25T11:44:45.108Z,99.99
2018-01-25T11:45:45.088Z,99.99
2018-01-25T11:46:45.071Z,99.99
2018-01-25T11:47:45.042Z,99.99
2018-01-25T11:48:45.023Z,99.99
2018-01-25T11:49:44.999Z,99.99
2018-01-25T11:50:44.980Z,99.99
2018-01-25T11:51:44.954Z,99.99
2018-01-25T11:52:45.118Z,99.99
2018-01-25T11:53:44.667Z,99.99
2018-01-25T11:54:44.647Z,99.99
2018-01-25T11:55:44.625Z,99.99
2018-01-25T11:56:44.847Z,99.99
2018-01-25T11:57:44.826Z,99.99
2018-01-25T11:58:44.907Z,99.99
2018-01-25T11:59:44.785Z,99.99
2018-01-25T12:00:44.761Z,99.99
2018-01-25T12:01:44.492Z,99.99
2018-01-25T12:02:44.718Z,99.99
2018-01-25T12:03:44.450Z,99.99
2018-01-25T12:04:44.709Z,99.99
2018-01-25T12:05:44.407Z,99.99
2018-01-25T12:06:44.636Z,99.99
2018-01-25T12:07:44.361Z,99.99
2018-01-25T12:08:44.341Z,99.99
2018-01-25T12:09:44.316Z,99.99
2018-01-25T12:10:44.294Z,99.99
2018-01-25T12:11:44.517Z,99.99
2018-01-25T12:12:44.252Z,99.99
2018-01-25T12:13:44.477Z,99.99
2018-01-25T12:14:44.207Z,99.99
2018-01-25T12:15:44.436Z,99.99
2018-01-25T12:16:44.407Z,99.99
2018-01-25T12:17:44.386Z,99.99
2018-01-25T12:18:44.368Z,99.99
2018-01-25T12:19:44.347Z,99.99
2018-01-25T12:20:44.326Z,99.99
2018-01-25T12:21:44.302Z,99.99
2018-01-25T12:22:44.031Z,99.99
2018-01-25T12:23:44.255Z,99.99
2018-01-25T12:24:44.236Z,99.99
2018-01-25T12:25:44.280Z,99.99
2018-01-25T12:26:44.193Z,99.99
2018-01-25T12:27:44.169Z,99.99
2018-01-25T12:28:44.148Z,99.99
2018-01-25T12:29:44.124Z,99.99
2018-01-25T12:30:44.125Z,99.99
2018-01-25T12:31:43.835Z,99.99
2018-01-25T12:32:44.063Z,99.99
2018-01-25T12:33:44.037Z,99.99
2018-01-25T12:34:44.018Z,99.99
2018-01-25T12:35:43.994Z,99.99
2018-01-25T12:36:43.972Z,99.99
2018-01-25T12:37:43.953Z,99.99
2018-01-25T12:38:43.933Z,99.99
2018-01-25T12:39:43.904Z,99.99
2018-01-25T12:40:43.881Z,99.99
2018-01-25T12:41:43.862Z,99.99
2018-01-25T12:42:43.839Z,99.99
2018-01-25T12:43:43.817Z,99.99
2018-01-25T12:44:43.794Z,99.99
2018-01-25T12:45:43.780Z,99.99
2018-01-25T12:46:43.751Z,99.99
2018-01-25T12:47:43.726Z,99.99
2018-01-25T12:48:43.703Z,99.99
2018-01-25T12:49:43.684Z,99.99
2018-01-25T12:50:43.414Z,99.99
2018-01-25T12:51:43.644Z,99.99